Ebony, Virginia
Current Conditions -  °F | °C
As of 1:56 AM on Monday 24 Nov 2014 (Local Time) from KAVC Reporting Station
Broken Clouds Broken Clouds  
Wind Chill: 63°   Ceiling: 700
Heat Index: 63°   Visibility: 10mi
Dew Point: 62°   Wind: 12mph
Humidity: 97%   Direction: 160°SSE
Pressure: 29.78"   Gusts: NA
Location:  36.58°N, 77.99°W
Report Text: KAVC 240656Z AUTO 16010KT 10SM BKN007 17/17 A2978 RMK AO2 T01700165
Loading
Personal Weather Stations






























Interactive Weather Map New forecast layout! Learn more

10-Day Weather Forecast

Advertisements
Track Severe Weather on mobile